createdAt,value
2023-05-01T00:01:32.793Z,73.57
2023-05-01T00:04:00.935Z,73.06
2023-05-01T00:06:29.301Z,70.89
2023-05-01T00:08:57.211Z,72.49
2023-05-01T00:11:25.287Z,74.22
2023-05-01T00:13:54.544Z,71.44
2023-05-01T00:16:22.454Z,84.99
2023-05-01T00:18:50.596Z,88.70
2023-05-01T00:21:18.594Z,75.91
2023-05-01T00:23:46.977Z,72.91
2023-05-01T00:26:14.946Z,72.21
2023-05-01T00:28:44.331Z,75.36
2023-05-01T00:31:12.475Z,76.53
2023-05-01T00:33:40.681Z,75.17
2023-05-01T00:36:09.306Z,73.44
2023-05-01T00:38:37.252Z,72.19
2023-05-01T00:41:05.233Z,73.57
2023-05-01T00:43:33.814Z,73.80
2023-05-01T00:46:01.894Z,77.87
2023-05-01T00:48:29.932Z,86.53
2023-05-01T00:50:57.885Z,98.63
2023-05-01T00:53:26.501Z,79.07
2023-05-01T00:55:56.510Z,74.28
2023-05-01T00:58:24.391Z,77.04
2023-05-01T01:00:53.208Z,86.38
2023-05-01T01:03:21.710Z,81.55
2023-05-01T01:06:24.569Z,79.22
2023-05-01T01:09:11.564Z,74.14
2023-05-01T01:11:54.598Z,74.19
2023-05-01T01:14:28.446Z,76.88
2023-05-01T01:17:05.026Z,87.37
2023-05-01T01:20:07.205Z,78.04
2023-05-01T01:22:35.532Z,78.40
2023-05-01T01:25:26.056Z,76.22
2023-05-01T01:28:15.817Z,76.61
2023-05-01T01:31:18.736Z,94.22
2023-05-01T01:33:52.765Z,97.82
2023-05-01T01:36:47.914Z,84.04
2023-05-01T01:40:05.342Z,80.79
2023-05-01T01:42:41.998Z,80.20
2023-05-01T01:45:13.596Z,82.37
2023-05-01T01:47:41.860Z,77.84
2023-05-01T01:50:10.420Z,76.78
2023-05-01T01:52:39.087Z,77.43
2023-05-01T01:55:12.594Z,77.14
2023-05-01T01:57:43.242Z,91.24
2023-05-01T02:00:12.098Z,87.44
2023-05-01T02:02:45.123Z,100.00
2023-05-01T02:05:15.036Z,100.00
2023-05-01T02:07:43.614Z,100.00
2023-05-01T02:10:12.857Z,99.94
2023-05-01T02:12:42.156Z,96.64
2023-05-01T02:15:10.098Z,95.30
2023-05-01T02:17:38.654Z,98.66
2023-05-01T02:20:07.782Z,96.05
2023-05-01T02:22:35.763Z,95.13
2023-05-01T02:25:04.162Z,93.29
2023-05-01T02:27:35.036Z,97.09
2023-05-01T02:30:03.454Z,92.33
2023-05-01T02:32:31.991Z,93.17
2023-05-01T02:35:00.496Z,91.86
2023-05-01T02:37:30.775Z,91.26
2023-05-01T02:40:00.713Z,92.59
2023-05-01T02:42:28.687Z,90.94
2023-05-01T02:45:05.172Z,92.16
2023-05-01T02:47:35.683Z,88.89
2023-05-01T02:50:03.942Z,96.90
2023-05-01T02:52:32.111Z,93.35
2023-05-01T02:55:12.027Z,90.35
2023-05-01T02:57:39.964Z,96.33
2023-05-01T03:00:11.656Z,92.26
2023-05-01T03:02:40.715Z,92.78
2023-05-01T03:05:09.176Z,89.75
2023-05-01T03:07:37.210Z,95.85
2023-05-01T03:10:06.067Z,92.39
2023-05-01T03:12:34.186Z,90.47
2023-05-01T03:15:02.323Z,90.72
2023-05-01T03:17:31.501Z,92.53
2023-05-01T03:19:59.420Z,100.00
2023-05-01T03:22:29.705Z,100.00
2023-05-01T03:24:57.819Z,100.00
2023-05-01T03:27:25.753Z,100.00
2023-05-01T03:29:55.568Z,100.00
2023-05-01T03:32:24.153Z,100.00
2023-05-01T03:34:52.409Z,100.00
2023-05-01T03:37:21.330Z,100.00
2023-05-01T03:39:49.511Z,100.00
2023-05-01T03:42:35.926Z,100.00
2023-05-01T03:45:09.826Z,100.00
2023-05-01T03:47:37.880Z,100.00
2023-05-01T03:50:07.055Z,100.00
2023-05-01T03:52:35.400Z,100.00
2023-05-01T03:55:04.542Z,100.00
2023-05-01T03:57:42.727Z,100.00
2023-05-01T04:00:12.027Z,100.00
2023-05-01T04:02:46.426Z,100.00
2023-05-01T04:05:18.701Z,100.00
2023-05-01T04:07:50.713Z,100.00
2023-05-01T04:10:18.731Z,100.00
2023-05-01T04:12:58.701Z,100.00
2023-05-01T04:15:27.102Z,100.00
2023-05-01T04:17:56.978Z,100.00
2023-05-01T04:20:25.112Z,100.00
2023-05-01T04:22:53.232Z,100.00
2023-05-01T04:25:21.234Z,99.73
2023-05-01T04:27:50.802Z,99.08
2023-05-01T04:30:18.780Z,100.00
2023-05-01T04:32:46.920Z,100.00
2023-05-01T04:35:15.083Z,100.00
2023-05-01T04:37:44.510Z,100.00
2023-05-01T04:40:12.924Z,100.00
2023-05-01T04:42:41.133Z,98.90
2023-05-01T04:45:11.375Z,98.98
2023-05-01T04:47:39.530Z,98.05
2023-05-01T04:50:08.375Z,98.98
2023-05-01T04:52:36.446Z,98.02
2023-05-01T04:55:05.185Z,98.57
2023-05-01T04:57:35.711Z,99.90
2023-05-01T05:00:08.041Z,98.66
2023-05-01T05:02:40.206Z,97.97
2023-05-01T05:05:09.310Z,95.78
2023-05-01T05:07:37.667Z,94.84
2023-05-01T05:10:26.031Z,94.53
2023-05-01T05:13:06.800Z,93.73
2023-05-01T05:15:34.910Z,93.17
2023-05-01T05:18:04.007Z,90.12
2023-05-01T05:20:32.501Z,86.92
2023-05-01T05:23:00.534Z,84.90
2023-05-01T05:25:28.647Z,79.33
2023-05-01T05:27:56.742Z,69.32
2023-05-01T05:30:24.727Z,71.46
2023-05-01T05:32:53.758Z,66.31
2023-05-01T05:35:22.240Z,64.16
2023-05-01T05:37:50.841Z,65.38
2023-05-01T05:40:19.484Z,61.55
2023-05-01T05:42:58.848Z,58.01
2023-05-01T05:45:27.537Z,54.43
2023-05-01T05:47:55.847Z,56.47
2023-05-01T05:50:24.275Z,56.10
2023-05-01T05:52:52.368Z,54.83
2023-05-01T05:55:20.941Z,48.33
2023-05-01T05:58:09.190Z,47.16
2023-05-01T06:00:39.632Z,44.58
2023-05-01T06:03:10.188Z,44.88
2023-05-01T06:05:38.497Z,44.27
2023-05-01T06:08:06.613Z,44.34
2023-05-01T06:10:34.627Z,44.48
2023-05-01T06:13:10.392Z,44.52
2023-05-01T06:15:45.048Z,44.19
2023-05-01T06:18:13.599Z,43.06
2023-05-01T06:20:42.798Z,44.02
2023-05-01T06:23:11.051Z,43.49
2023-05-01T06:25:48.878Z,42.39
2023-05-01T06:28:16.876Z,43.10
2023-05-01T06:30:45.270Z,42.97
2023-05-01T06:33:14.033Z,42.98
2023-05-01T06:35:42.808Z,42.82
2023-05-01T06:38:11.377Z,41.93
2023-05-01T06:40:42.228Z,42.59
2023-05-01T06:43:10.168Z,42.39
2023-05-01T06:45:40.088Z,41.20
2023-05-01T06:48:08.119Z,41.44
2023-05-01T06:50:37.397Z,41.05
2023-05-01T06:53:05.320Z,41.45
2023-05-01T06:55:35.174Z,41.31
2023-05-01T06:58:16.009Z,41.86
2023-05-01T07:00:51.388Z,41.62
2023-05-01T07:03:19.501Z,42.00
2023-05-01T07:05:47.540Z,41.40
2023-05-01T07:08:15.533Z,40.61
2023-05-01T07:10:43.704Z,41.17
2023-05-01T07:13:11.731Z,40.16
2023-05-01T07:15:39.684Z,40.59
2023-05-01T07:18:07.949Z,40.75
2023-05-01T07:20:35.975Z,40.65
2023-05-01T07:23:07.276Z,40.71
2023-05-01T07:25:41.477Z,40.30
2023-05-01T07:28:09.420Z,40.29
2023-05-01T07:30:37.688Z,40.12
2023-05-01T07:33:06.073Z,40.16
2023-05-01T07:35:34.056Z,40.28
2023-05-01T07:38:02.066Z,39.89
2023-05-01T07:40:30.108Z,39.14
2023-05-01T07:42:58.160Z,39.85
2023-05-01T07:45:26.080Z,39.88
2023-05-01T07:47:54.370Z,39.56
2023-05-01T07:50:22.850Z,39.26
2023-05-01T07:52:51.225Z,38.89
2023-05-01T07:55:19.437Z,38.33
2023-05-01T07:57:47.522Z,37.63
2023-05-01T08:00:16.201Z,37.32
2023-05-01T08:02:44.530Z,37.88
2023-05-01T08:05:12.493Z,38.00
2023-05-01T08:07:40.584Z,37.67
2023-05-01T08:10:09.200Z,37.47
2023-05-01T08:12:37.222Z,36.48
2023-05-01T08:15:05.875Z,35.60
2023-05-01T08:17:35.592Z,35.88
2023-05-01T08:20:04.349Z,36.37
2023-05-01T08:22:32.330Z,36.23
2023-05-01T08:25:00.352Z,35.70
2023-05-01T08:27:28.844Z,35.23
2023-05-01T08:29:56.943Z,35.73
2023-05-01T08:32:25.666Z,35.15
2023-05-01T08:34:54.047Z,35.36
2023-05-01T08:37:22.408Z,34.38
2023-05-01T08:39:50.561Z,33.69
2023-05-01T08:42:18.936Z,34.28
2023-05-01T08:44:46.958Z,33.40
2023-05-01T08:47:18.594Z,33.50
2023-05-01T08:49:47.396Z,33.62
2023-05-01T08:52:18.072Z,32.84
2023-05-01T08:54:47.311Z,33.53
2023-05-01T08:57:15.389Z,32.84
2023-05-01T08:59:43.366Z,32.43
2023-05-01T09:02:12.614Z,32.05
2023-05-01T09:04:41.362Z,31.27
2023-05-01T09:07:12.074Z,31.39
2023-05-01T09:09:40.154Z,31.16
2023-05-01T09:12:28.406Z,31.20
2023-05-01T09:14:56.927Z,31.02
2023-05-01T09:17:25.149Z,29.79
2023-05-01T09:19:53.331Z,30.85
2023-05-01T09:22:21.472Z,30.53
2023-05-01T09:24:49.535Z,30.81
2023-05-01T09:27:17.634Z,30.39
2023-05-01T09:29:47.485Z,30.44
2023-05-01T09:32:22.592Z,29.78
2023-05-01T09:34:54.967Z,29.84
2023-05-01T09:37:29.732Z,29.82
2023-05-01T09:40:07.235Z,29.51
2023-05-01T09:42:37.596Z,28.70
2023-05-01T09:45:14.128Z,28.88
2023-05-01T09:47:44.045Z,28.17
2023-05-01T09:50:33.176Z,28.94
2023-05-01T09:53:01.646Z,29.48
2023-05-01T09:55:29.676Z,29.49
2023-05-01T09:57:59.024Z,28.92
2023-05-01T10:00:27.092Z,29.07
2023-05-01T10:02:55.201Z,27.91
2023-05-01T10:05:23.592Z,27.10
2023-05-01T10:07:59.192Z,27.59
2023-05-01T10:10:27.464Z,27.35
2023-05-01T10:12:55.625Z,27.13
2023-05-01T10:15:26.928Z,28.15
2023-05-01T10:17:55.751Z,28.08
2023-05-01T10:20:24.078Z,28.02
2023-05-01T10:22:52.145Z,27.86
2023-05-01T10:25:20.094Z,27.60
2023-05-01T10:27:48.659Z,27.87
2023-05-01T10:30:16.785Z,27.70
2023-05-01T10:32:44.785Z,27.83
2023-05-01T10:35:15.357Z,27.19
2023-05-01T10:37:56.700Z,26.79
2023-05-01T10:40:39.950Z,26.80
2023-05-01T10:43:28.823Z,26.07
2023-05-01T10:46:12.308Z,25.55
2023-05-01T10:48:44.068Z,25.06
2023-05-01T10:51:15.872Z,25.94
2023-05-01T10:53:44.919Z,24.95
2023-05-01T10:56:23.920Z,25.08
2023-05-01T10:58:58.976Z,25.06
2023-05-01T11:01:31.571Z,25.66
2023-05-01T11:04:19.626Z,25.64
2023-05-01T11:07:05.973Z,25.86
2023-05-01T11:09:40.158Z,25.06
2023-05-01T11:12:11.816Z,25.61
2023-05-01T11:15:02.564Z,25.37
2023-05-01T11:17:39.827Z,25.42
2023-05-01T11:20:11.209Z,24.95
2023-05-01T11:22:48.633Z,25.21
2023-05-01T11:25:27.749Z,24.71
2023-05-01T11:28:03.478Z,24.72
2023-05-01T11:30:40.870Z,24.13
2023-05-01T11:33:10.471Z,24.03
2023-05-01T11:35:38.984Z,24.58
2023-05-01T11:38:06.982Z,23.37
2023-05-01T11:40:35.170Z,23.02
2023-05-01T11:43:07.359Z,22.49
2023-05-01T11:45:36.520Z,22.42
2023-05-01T11:48:05.233Z,22.91
2023-05-01T11:50:35.630Z,23.18
2023-05-01T11:53:04.691Z,23.43
2023-05-01T11:55:33.470Z,23.73
2023-05-01T11:58:02.129Z,24.13
2023-05-01T12:00:31.792Z,24.56
2023-05-01T12:03:02.206Z,23.84
2023-05-01T12:05:31.208Z,24.45
2023-05-01T12:08:14.277Z,25.02
2023-05-01T12:10:43.471Z,25.45
2023-05-01T12:13:13.079Z,25.41
2023-05-01T12:15:46.231Z,25.12
2023-05-01T12:18:15.410Z,24.85
2023-05-01T12:20:48.731Z,24.85
2023-05-01T12:23:16.952Z,25.36
2023-05-01T12:25:45.553Z,25.37
2023-05-01T12:28:15.206Z,25.41
2023-05-01T12:30:43.571Z,24.29
2023-05-01T12:33:16.624Z,22.76
2023-05-01T12:35:46.746Z,23.09
2023-05-01T12:38:15.312Z,23.53
2023-05-01T12:40:59.787Z,23.59
2023-05-01T12:43:32.144Z,24.16
2023-05-01T12:46:00.447Z,24.52
2023-05-01T12:48:28.493Z,24.57
2023-05-01T12:50:57.004Z,24.95
2023-05-01T12:53:26.301Z,25.33
2023-05-01T12:55:58.418Z,24.71
2023-05-01T12:58:37.059Z,24.76
2023-05-01T13:01:07.918Z,24.64
2023-05-01T13:03:38.525Z,24.86
2023-05-01T13:06:09.307Z,24.90
2023-05-01T13:08:39.799Z,25.03
2023-05-01T13:11:15.454Z,25.16
2023-05-01T13:13:44.379Z,24.89
2023-05-01T13:16:13.894Z,25.03
2023-05-01T13:18:51.603Z,25.11
2023-05-01T13:21:20.947Z,24.67
2023-05-01T13:23:55.311Z,24.29
2023-05-01T13:26:33.733Z,24.38
2023-05-01T13:29:03.231Z,24.55
2023-05-01T13:31:31.443Z,24.73
2023-05-01T13:33:59.658Z,24.49
2023-05-01T13:36:32.408Z,24.60
2023-05-01T13:39:00.357Z,24.74
2023-05-01T13:41:28.505Z,25.14
2023-05-01T13:43:57.144Z,25.08
2023-05-01T13:46:26.625Z,24.80
2023-05-01T13:48:54.810Z,24.20
2023-05-01T13:51:24.430Z,24.46
2023-05-01T13:53:53.743Z,23.91
2023-05-01T13:56:22.424Z,23.49
2023-05-01T13:58:50.971Z,23.68
2023-05-01T14:01:20.819Z,23.47
2023-05-01T14:03:49.426Z,23.69
2023-05-01T14:06:19.186Z,23.73
2023-05-01T14:08:48.416Z,23.75
2023-05-01T14:11:16.935Z,24.05
2023-05-01T14:13:45.959Z,23.60
2023-05-01T14:16:31.961Z,23.56
2023-05-01T14:18:59.991Z,23.86
2023-05-01T14:21:28.520Z,24.05
2023-05-01T14:23:59.605Z,23.47
2023-05-01T14:26:27.721Z,23.67
2023-05-01T14:28:55.768Z,23.67
2023-05-01T14:31:28.529Z,23.49
2023-05-01T14:33:58.155Z,24.12
2023-05-01T14:36:26.885Z,23.28
2023-05-01T14:39:01.156Z,23.32
2023-05-01T14:41:30.099Z,23.70
2023-05-01T14:43:58.098Z,23.32
2023-05-01T14:46:30.081Z,23.60
2023-05-01T14:48:58.760Z,24.52
2023-05-01T14:51:27.364Z,24.87
2023-05-01T14:53:55.507Z,25.20
2023-05-01T14:56:23.611Z,25.01
2023-05-01T14:58:51.626Z,24.72
2023-05-01T15:01:19.876Z,24.65
2023-05-01T15:03:48.162Z,24.47
2023-05-01T15:06:17.230Z,24.21
2023-05-01T15:08:45.866Z,24.55
2023-05-01T15:11:14.385Z,24.52
2023-05-01T15:13:46.053Z,24.49
2023-05-01T15:16:13.980Z,24.47
2023-05-01T15:18:42.195Z,24.66
2023-05-01T15:21:10.407Z,24.96
2023-05-01T15:23:39.793Z,25.40
2023-05-01T15:26:07.710Z,25.79
2023-05-01T15:28:35.602Z,25.75
2023-05-01T15:31:03.632Z,25.83
2023-05-01T15:33:35.277Z,25.89
2023-05-01T15:36:03.434Z,26.03
2023-05-01T15:38:31.502Z,26.27
2023-05-01T15:40:59.620Z,26.15
2023-05-01T15:43:27.804Z,26.12
2023-05-01T15:45:59.228Z,26.40
2023-05-01T15:48:27.278Z,26.62
2023-05-01T15:50:55.194Z,26.76
2023-05-01T15:53:23.262Z,27.07
2023-05-01T15:55:53.366Z,26.92
2023-05-01T15:58:21.839Z,26.95
2023-05-01T16:00:50.281Z,26.70
2023-05-01T16:03:18.434Z,26.74
2023-05-01T16:05:49.898Z,27.06
2023-05-01T16:08:18.199Z,27.12
2023-05-01T16:10:46.267Z,27.46
2023-05-01T16:13:14.296Z,28.00
2023-05-01T16:15:42.275Z,28.16
2023-05-01T16:18:10.342Z,28.68
2023-05-01T16:20:41.948Z,29.14
2023-05-01T16:23:11.372Z,29.01
2023-05-01T16:25:42.642Z,29.04
2023-05-01T16:28:12.603Z,29.29
2023-05-01T16:30:41.875Z,29.37
2023-05-01T16:33:18.875Z,29.53
2023-05-01T16:35:48.807Z,29.62
2023-05-01T16:38:17.400Z,29.70
2023-05-01T16:40:46.102Z,29.75
2023-05-01T16:43:14.136Z,29.64
2023-05-01T16:45:42.315Z,29.83
2023-05-01T16:48:10.447Z,29.87
2023-05-01T16:50:41.577Z,30.02
2023-05-01T16:53:09.540Z,30.40
2023-05-01T16:55:37.462Z,30.44
2023-05-01T16:58:06.988Z,30.55
2023-05-01T17:00:34.948Z,30.90
2023-05-01T17:03:03.087Z,31.02
2023-05-01T17:05:31.104Z,31.52
2023-05-01T17:07:59.810Z,31.67
2023-05-01T17:10:29.218Z,31.73
2023-05-01T17:12:57.274Z,32.13
2023-05-01T17:15:25.394Z,32.41
2023-05-01T17:17:53.646Z,32.45
2023-05-01T17:20:22.010Z,32.56
2023-05-01T17:22:49.991Z,32.99
2023-05-01T17:25:18.141Z,33.06
2023-05-01T17:27:46.211Z,33.46
2023-05-01T17:30:14.646Z,33.74
2023-05-01T17:32:43.175Z,33.74
2023-05-01T17:35:11.399Z,33.99
2023-05-01T17:37:42.124Z,34.07
2023-05-01T17:40:11.806Z,34.39
2023-05-01T17:42:40.539Z,34.43
2023-05-01T17:45:10.470Z,34.54
2023-05-01T17:47:42.859Z,34.74
2023-05-01T17:50:13.022Z,35.24
2023-05-01T17:52:42.247Z,35.14
2023-05-01T17:55:10.848Z,34.96
2023-05-01T17:57:42.043Z,35.72
2023-05-01T18:00:11.818Z,35.73
2023-05-01T18:02:45.212Z,35.92
2023-05-01T18:05:13.664Z,36.22
2023-05-01T18:07:42.569Z,36.30
2023-05-01T18:10:11.515Z,36.48
2023-05-01T18:12:40.214Z,36.60
2023-05-01T18:15:11.551Z,36.90
2023-05-01T18:17:42.997Z,36.89
2023-05-01T18:20:13.726Z,37.06
2023-05-01T18:22:42.128Z,38.24
2023-05-01T18:25:10.475Z,38.16
2023-05-01T18:27:39.044Z,38.78
2023-05-01T18:30:07.828Z,39.02
2023-05-01T18:32:46.993Z,41.00
2023-05-01T18:35:17.281Z,41.78
2023-05-01T18:37:45.405Z,41.28
2023-05-01T18:40:13.589Z,41.49
2023-05-01T18:42:42.056Z,42.24
2023-05-01T18:45:10.411Z,44.73
2023-05-01T18:47:38.545Z,44.66
2023-05-01T18:50:07.254Z,44.15
2023-05-01T18:52:37.248Z,47.44
2023-05-01T18:55:06.594Z,45.44
2023-05-01T18:57:35.144Z,47.12
2023-05-01T19:00:03.556Z,47.24
2023-05-01T19:02:31.736Z,46.78
2023-05-01T19:04:59.948Z,47.37
2023-05-01T19:07:27.943Z,47.68
2023-05-01T19:09:56.075Z,49.25
2023-05-01T19:12:24.022Z,47.06
2023-05-01T19:14:51.948Z,49.22
2023-05-01T19:17:20.121Z,51.53
2023-05-01T19:19:48.267Z,52.09
2023-05-01T19:22:16.794Z,49.88
2023-05-01T19:24:44.846Z,48.48
2023-05-01T19:27:12.908Z,49.10
2023-05-01T19:29:41.097Z,51.91
2023-05-01T19:32:09.209Z,50.79
2023-05-01T19:34:37.232Z,49.91
2023-05-01T19:37:05.256Z,50.41
2023-05-01T19:39:33.412Z,49.02
2023-05-01T19:42:02.235Z,50.22
2023-05-01T19:44:30.431Z,51.17
2023-05-01T19:46:58.419Z,49.24
2023-05-01T19:49:26.850Z,49.96
2023-05-01T19:51:55.200Z,52.86
2023-05-01T19:54:26.217Z,51.60
2023-05-01T19:56:55.175Z,55.59
2023-05-01T19:59:23.290Z,55.40
2023-05-01T20:01:52.051Z,53.42
2023-05-01T20:04:23.160Z,53.15
2023-05-01T20:06:52.109Z,53.76
2023-05-01T20:09:20.268Z,53.17
2023-05-01T20:11:48.260Z,56.88
2023-05-01T20:14:16.366Z,54.90
2023-05-01T20:16:44.418Z,52.64
2023-05-01T20:19:15.052Z,53.27
2023-05-01T20:21:43.029Z,53.13
2023-05-01T20:24:11.786Z,55.48
2023-05-01T20:26:39.748Z,55.58
2023-05-01T20:29:09.434Z,55.82
2023-05-01T20:31:37.665Z,53.42
2023-05-01T20:34:05.988Z,55.28
2023-05-01T20:36:34.200Z,55.75
2023-05-01T20:39:02.509Z,57.25
2023-05-01T20:41:30.998Z,55.82
2023-05-01T20:43:59.098Z,55.88
2023-05-01T20:46:27.173Z,59.61
2023-05-01T20:48:56.061Z,56.35
2023-05-01T20:51:24.143Z,54.40
2023-05-01T20:53:52.189Z,54.46
2023-05-01T20:56:20.311Z,57.29
2023-05-01T20:58:48.276Z,57.51
2023-05-01T21:01:16.253Z,55.52
2023-05-01T21:03:44.432Z,56.24
2023-05-01T21:06:14.410Z,56.46
2023-05-01T21:08:42.606Z,56.08
2023-05-01T21:11:10.679Z,57.12
2023-05-01T21:13:38.728Z,56.90
2023-05-01T21:16:06.968Z,56.20
2023-05-01T21:18:34.963Z,55.25
2023-05-01T21:21:02.954Z,55.25
2023-05-01T21:23:31.158Z,54.98
2023-05-01T21:25:59.283Z,55.50
2023-05-01T21:28:27.853Z,54.86
2023-05-01T21:30:55.950Z,56.28
2023-05-01T21:33:23.980Z,56.65
2023-05-01T21:35:52.004Z,58.54
2023-05-01T21:38:20.019Z,57.24
2023-05-01T21:40:48.220Z,57.85
2023-05-01T21:43:16.228Z,59.59
2023-05-01T21:45:44.425Z,58.05
2023-05-01T21:48:16.356Z,57.75
2023-05-01T21:50:47.981Z,57.94
2023-05-01T21:53:16.344Z,58.74
2023-05-01T21:55:47.303Z,59.09
2023-05-01T21:58:15.313Z,59.58
2023-05-01T22:00:43.334Z,58.65
2023-05-01T22:03:11.429Z,59.71
2023-05-01T22:05:41.109Z,58.41
2023-05-01T22:08:09.179Z,58.38
2023-05-01T22:10:37.365Z,57.78
2023-05-01T22:13:06.514Z,59.30
2023-05-01T22:15:34.684Z,61.88
2023-05-01T22:18:02.733Z,59.77
2023-05-01T22:20:31.148Z,60.84
2023-05-01T22:22:59.150Z,62.15
2023-05-01T22:25:27.126Z,60.50
2023-05-01T22:27:55.074Z,61.64
2023-05-01T22:30:23.197Z,60.91
2023-05-01T22:32:51.235Z,62.10
2023-05-01T22:35:19.228Z,60.68
2023-05-01T22:37:47.203Z,61.79
2023-05-01T22:40:15.140Z,64.31
2023-05-01T22:42:43.135Z,63.16
2023-05-01T22:45:11.544Z,61.17
2023-05-01T22:47:39.531Z,61.82
2023-05-01T22:50:08.169Z,60.87
2023-05-01T22:52:36.521Z,61.30
2023-05-01T22:55:04.905Z,60.51
2023-05-01T22:57:32.869Z,60.50
2023-05-01T23:00:01.026Z,60.98
2023-05-01T23:02:29.375Z,60.24
2023-05-01T23:04:57.438Z,60.31
2023-05-01T23:07:25.445Z,61.11
2023-05-01T23:09:53.451Z,61.08
2023-05-01T23:12:25.790Z,61.78
2023-05-01T23:14:53.879Z,62.73
2023-05-01T23:17:22.193Z,61.30
2023-05-01T23:19:50.408Z,60.96
2023-05-01T23:22:18.426Z,61.24
2023-05-01T23:24:48.505Z,61.18
2023-05-01T23:27:17.336Z,60.83
2023-05-01T23:30:11.798Z,62.04
2023-05-01T23:32:39.776Z,61.19
2023-05-01T23:35:19.169Z,61.14
2023-05-01T23:37:47.107Z,62.58
2023-05-01T23:40:15.124Z,62.74
2023-05-01T23:42:43.156Z,62.68
2023-05-01T23:45:11.224Z,61.55
2023-05-01T23:47:39.208Z,62.79
2023-05-01T23:50:07.663Z,61.23
2023-05-01T23:52:35.632Z,60.42
2023-05-01T23:55:03.701Z,60.49
2023-05-01T23:57:31.668Z,61.60
2023-05-01T23:59:59.893Z,60.58
